createdAt,value
2023-04-15T00:04:31.905Z,12.30
2023-04-15T00:09:34.836Z,13.10
2023-04-15T00:14:37.656Z,11.80
2023-04-15T00:19:41.175Z,11.70
2023-04-15T00:24:46.599Z,14.20
2023-04-15T00:29:49.445Z,13.90
2023-04-15T00:34:52.591Z,13.60
2023-04-15T00:39:55.900Z,11.90
2023-04-15T00:44:59.739Z,12.30
2023-04-15T00:50:02.594Z,13.70
2023-04-15T00:55:06.702Z,9.70
2023-04-15T01:00:11.610Z,12.90
2023-04-15T01:05:17.388Z,13.10
2023-04-15T01:10:20.281Z,9.50
2023-04-15T01:15:23.134Z,13.90
2023-04-15T01:20:26.072Z,13.90
2023-04-15T01:25:35.144Z,13.00
2023-04-15T01:30:38.160Z,11.20
2023-04-15T01:35:41.066Z,12.60
2023-04-15T01:40:43.819Z,12.30
2023-04-15T01:45:47.190Z,12.80
2023-04-15T01:50:50.622Z,12.90
2023-04-15T01:55:53.410Z,10.30
2023-04-15T02:00:57.200Z,12.30
2023-04-15T02:05:59.976Z,11.50
2023-04-15T02:11:02.722Z,12.50
2023-04-15T02:16:15.965Z,10.50
2023-04-15T02:21:19.108Z,10.00
2023-04-15T02:26:25.524Z,12.10
2023-04-15T02:31:28.476Z,13.10
2023-04-15T02:36:32.058Z,13.00
2023-04-15T02:41:35.251Z,13.00
2023-04-15T02:46:38.042Z,11.90
2023-04-15T02:51:40.848Z,13.30
2023-04-15T02:56:43.599Z,11.10
2023-04-15T03:01:46.517Z,12.20
2023-04-15T03:06:49.370Z,14.70
2023-04-15T03:11:53.636Z,11.00
2023-04-15T03:16:56.837Z,11.00
2023-04-15T03:21:59.638Z,8.60
2023-04-15T03:27:02.654Z,11.90
2023-04-15T03:32:05.863Z,11.40
2023-04-15T03:37:08.856Z,9.50
2023-04-15T03:42:11.965Z,8.50
2023-04-15T03:47:15.182Z,10.00
2023-04-15T03:52:17.917Z,10.60
2023-04-15T03:57:20.708Z,9.20
2023-04-15T04:02:23.638Z,10.30
2023-04-15T04:07:26.870Z,9.40
2023-04-15T04:12:29.573Z,10.80
2023-04-15T04:17:32.689Z,10.00
2023-04-15T04:22:42.466Z,7.50
2023-04-15T04:27:45.981Z,10.70
2023-04-15T04:32:53.190Z,12.30
2023-04-15T04:37:56.661Z,9.70
2023-04-15T04:43:00.059Z,8.90
2023-04-15T04:48:07.027Z,10.00
2023-04-15T04:53:10.191Z,9.80
2023-04-15T04:58:13.286Z,11.70
2023-04-15T05:03:16.312Z,11.50
2023-04-15T05:08:19.313Z,10.40
2023-04-15T05:13:22.197Z,9.90
2023-04-15T05:18:25.061Z,10.70
2023-04-15T05:23:27.889Z,9.40
2023-04-15T05:28:31.038Z,8.40
2023-04-15T05:33:33.866Z,10.80
2023-04-15T05:38:37.474Z,12.00
2023-04-15T05:43:40.709Z,11.80
2023-04-15T05:48:43.497Z,11.20
2023-04-15T05:53:46.603Z,14.30
2023-04-15T05:58:50.535Z,12.00
2023-04-15T06:03:54.315Z,12.40
2023-04-15T06:08:57.598Z,10.80
2023-04-15T06:14:00.379Z,11.80
2023-04-15T06:19:04.187Z,11.30
2023-04-15T06:24:07.292Z,11.90
2023-04-15T06:29:10.094Z,10.80
2023-04-15T06:34:12.866Z,11.10
2023-04-15T06:39:15.737Z,10.50
2023-04-15T06:44:18.764Z,11.60
2023-04-15T06:49:21.981Z,14.70
2023-04-15T06:54:24.850Z,10.30
2023-04-15T06:59:27.655Z,12.00
2023-04-15T07:04:30.590Z,11.50
2023-04-15T07:09:34.531Z,11.30
2023-04-15T07:14:37.336Z,9.70
2023-04-15T07:19:41.758Z,10.80
2023-04-15T07:24:46.762Z,10.80
2023-04-15T07:29:52.077Z,11.80
2023-04-15T07:34:54.930Z,15.80
2023-04-15T07:39:57.834Z,11.40
2023-04-15T07:45:00.738Z,11.40
2023-04-15T07:50:03.589Z,12.40
2023-04-15T07:55:10.879Z,11.40
2023-04-15T08:00:16.958Z,9.60
2023-04-15T08:05:20.351Z,14.50
2023-04-15T08:10:24.562Z,12.90
2023-04-15T08:15:31.556Z,11.80
2023-04-15T08:20:37.761Z,9.50
2023-04-15T08:25:40.571Z,11.20
2023-04-15T08:30:43.791Z,11.40
2023-04-15T08:35:47.237Z,9.30
2023-04-15T08:40:50.798Z,13.00
2023-04-15T08:45:56.034Z,11.80
2023-04-15T08:51:01.041Z,10.60
2023-04-15T08:56:07.762Z,9.70
2023-04-15T09:06:17.414Z,13.30
2023-04-15T09:11:22.461Z,10.10
2023-04-15T09:16:25.337Z,10.50
2023-04-15T09:21:29.676Z,10.90
2023-04-15T09:26:40.530Z,10.60
2023-04-15T09:31:43.650Z,15.70
2023-04-15T09:36:47.036Z,12.10
2023-04-15T09:42:06.905Z,10.90
2023-04-15T09:47:09.748Z,10.50
2023-04-15T09:52:14.449Z,11.90
2023-04-15T09:57:17.279Z,15.40
2023-04-15T10:02:29.882Z,10.80
2023-04-15T10:07:35.323Z,12.20
2023-04-15T10:12:44.018Z,11.60
2023-04-15T10:17:51.394Z,10.80
2023-04-15T10:22:55.820Z,11.90
2023-04-15T10:28:04.659Z,12.90
2023-04-15T10:33:09.890Z,9.70
2023-04-15T10:38:42.951Z,11.10
2023-04-15T10:44:04.438Z,10.60
2023-04-15T10:49:24.502Z,9.50
2023-04-15T10:54:27.236Z,10.30
2023-04-15T11:00:04.995Z,8.70
2023-04-15T11:05:09.229Z,10.70
2023-04-15T11:10:18.166Z,10.90
2023-04-15T11:15:41.812Z,9.10
2023-04-15T11:20:57.584Z,11.50
2023-04-15T11:26:05.722Z,11.20
2023-04-15T11:31:11.421Z,10.70
2023-04-15T11:36:15.981Z,9.60
2023-04-15T11:41:24.492Z,12.10
2023-04-15T11:46:32.024Z,10.70
2023-04-15T11:51:36.071Z,11.80
2023-04-15T11:56:40.329Z,8.40
2023-04-15T12:01:46.339Z,8.40
2023-04-15T12:06:49.315Z,8.00
2023-04-15T12:11:55.416Z,8.60
2023-04-15T12:17:02.278Z,8.20
2023-04-15T12:22:08.882Z,12.60
2023-04-15T12:32:19.781Z,6.40
2023-04-15T12:42:25.467Z,7.80
2023-04-15T12:47:28.668Z,8.90
2023-04-15T12:52:31.639Z,7.70
2023-04-15T12:57:34.537Z,7.40
2023-04-15T13:02:37.958Z,7.10
2023-04-15T13:07:44.501Z,6.30
2023-04-15T13:12:54.592Z,9.00
2023-04-15T13:17:57.690Z,7.50
2023-04-15T13:23:00.817Z,6.00
2023-04-15T13:28:05.580Z,7.40
2023-04-15T13:33:08.874Z,7.30
2023-04-15T13:38:11.742Z,6.80
2023-04-15T13:43:14.629Z,6.10
2023-04-15T13:48:17.670Z,6.20
2023-04-15T13:53:20.902Z,6.20
2023-04-15T13:58:37.817Z,5.20
2023-04-15T14:03:40.931Z,6.30
2023-04-15T14:08:44.171Z,6.70
2023-04-15T14:13:47.414Z,6.90
2023-04-15T14:18:50.524Z,5.70
2023-04-15T14:23:54.680Z,6.90
2023-04-15T14:28:57.577Z,5.20
2023-04-15T14:34:00.651Z,7.30
2023-04-15T14:39:04.722Z,5.90
2023-04-15T14:44:09.764Z,6.90
2023-04-15T14:49:13.359Z,6.10
2023-04-15T14:54:16.246Z,6.00
2023-04-15T14:59:22.437Z,5.70
2023-04-15T15:04:27.060Z,6.20
2023-04-15T15:09:29.929Z,5.30
2023-04-15T15:14:33.036Z,6.60
2023-04-15T15:19:36.405Z,5.20
2023-04-15T15:24:41.064Z,4.70
2023-04-15T15:29:43.957Z,3.70
2023-04-15T15:34:46.774Z,4.60
2023-04-15T15:39:51.565Z,4.20
2023-04-15T15:44:55.324Z,4.30
2023-04-15T15:49:58.479Z,6.30
2023-04-15T15:55:05.861Z,4.60
2023-04-15T16:00:12.682Z,4.20
2023-04-15T16:05:16.405Z,6.70
2023-04-15T16:10:19.289Z,4.70
2023-04-15T16:15:26.384Z,5.00
2023-04-15T16:25:35.639Z,4.80
2023-04-15T16:30:41.635Z,4.60
2023-04-15T16:35:46.057Z,5.30
2023-04-15T16:40:51.710Z,3.70
2023-04-15T16:45:55.247Z,5.40
2023-04-15T16:50:58.597Z,4.80
2023-04-15T16:56:01.621Z,5.00
2023-04-15T17:01:04.572Z,4.40
2023-04-15T17:06:07.486Z,5.20
2023-04-15T17:11:12.272Z,4.30
2023-04-15T17:16:15.201Z,5.30
2023-04-15T17:21:18.066Z,4.90
2023-04-15T17:26:22.371Z,4.40
2023-04-15T17:31:25.391Z,6.10
2023-04-15T17:36:28.885Z,6.20
2023-04-15T17:41:34.768Z,5.30
2023-04-15T17:46:37.912Z,6.00
2023-04-15T17:51:40.980Z,5.30
2023-04-15T17:56:43.849Z,4.50
2023-04-15T18:01:46.719Z,4.60
2023-04-15T18:06:53.455Z,4.00
2023-04-15T18:11:57.335Z,4.20
2023-04-15T18:17:00.648Z,4.40
2023-04-15T18:22:04.173Z,4.10
2023-04-15T18:27:07.179Z,5.80
2023-04-15T18:32:10.394Z,6.30
2023-04-15T18:37:13.186Z,4.50
2023-04-15T18:42:17.702Z,3.50
2023-04-15T18:47:20.768Z,5.50
2023-04-15T18:52:23.600Z,6.80
2023-04-15T18:57:32.558Z,3.70
2023-04-15T19:02:41.035Z,4.60
2023-04-15T19:07:44.725Z,4.00
2023-04-15T19:12:47.605Z,3.10
2023-04-15T19:17:50.506Z,5.30
2023-04-15T19:22:55.150Z,4.40
2023-04-15T19:27:59.933Z,4.70
2023-04-15T19:33:03.166Z,4.70
2023-04-15T19:38:05.922Z,5.50
2023-04-15T19:43:08.722Z,5.90
2023-04-15T19:48:11.598Z,4.20
2023-04-15T19:53:14.401Z,4.30
2023-04-15T19:58:17.245Z,5.80
2023-04-15T20:03:20.724Z,4.10
2023-04-15T20:08:23.834Z,5.10
2023-04-15T20:13:26.847Z,4.30
2023-04-15T20:18:29.692Z,4.90
2023-04-15T20:23:32.623Z,5.00
2023-04-15T20:28:36.898Z,4.20
2023-04-15T20:33:39.837Z,4.60
2023-04-15T20:38:42.715Z,4.10
2023-04-15T20:43:45.569Z,4.50
2023-04-15T20:48:49.728Z,6.00
2023-04-15T20:53:52.811Z,6.50
2023-04-15T20:58:55.986Z,6.30
2023-04-15T21:03:59.576Z,5.10
2023-04-15T21:09:02.478Z,5.40
2023-04-15T21:14:08.703Z,5.10
2023-04-15T21:19:12.460Z,6.80
2023-04-15T21:24:19.088Z,6.00
2023-04-15T21:29:22.170Z,5.90
2023-04-15T21:34:27.148Z,5.10
2023-04-15T21:39:30.052Z,5.10
2023-04-15T21:44:32.884Z,5.20
2023-04-15T21:49:35.728Z,4.80
2023-04-15T21:54:38.621Z,4.90
2023-04-15T21:59:41.454Z,5.40
2023-04-15T22:04:45.394Z,5.50
2023-04-15T22:09:48.336Z,6.50
2023-04-15T22:14:51.136Z,5.70
2023-04-15T22:19:54.071Z,4.80
2023-04-15T22:24:56.825Z,4.20
2023-04-15T22:29:59.659Z,4.70
2023-04-15T22:35:03.197Z,5.40
2023-04-15T22:40:06.717Z,5.40
2023-04-15T22:45:09.837Z,6.20
2023-04-15T22:50:13.205Z,5.00
2023-04-15T22:55:16.051Z,6.00
2023-04-15T23:00:18.959Z,7.20
2023-04-15T23:05:21.788Z,7.00
2023-04-15T23:10:24.619Z,5.40
2023-04-15T23:15:27.423Z,5.30
2023-04-15T23:20:30.302Z,5.90
2023-04-15T23:25:33.044Z,5.40
2023-04-15T23:30:35.927Z,6.40
2023-04-15T23:35:39.008Z,4.30
2023-04-15T23:40:41.815Z,8.60
2023-04-15T23:45:44.670Z,5.50
2023-04-15T23:50:47.570Z,5.10
2023-04-15T23:55:50.728Z,5.00
